createdAt,value
2023-05-11T00:02:45.639Z,101147.09
2023-05-11T00:05:30.719Z,101166.19
2023-05-11T00:08:17.382Z,101165.66
2023-05-11T00:11:02.507Z,101156.03
2023-05-11T00:13:47.684Z,101161.91
2023-05-11T00:16:33.123Z,101165.97
2023-05-11T00:19:17.860Z,101132.28
2023-05-11T00:22:03.572Z,101164.66
2023-05-11T00:24:48.638Z,101160.44
2023-05-11T00:27:33.949Z,101159.81
2023-05-11T00:30:19.554Z,101149.41
2023-05-11T00:33:05.401Z,101153.19
2023-05-11T00:35:51.093Z,101165.06
2023-05-11T00:38:40.417Z,101164.75
2023-05-11T00:41:25.935Z,101148.09
2023-05-11T00:44:11.343Z,101151.66
2023-05-11T00:46:57.673Z,101162.38
2023-05-11T00:49:44.018Z,101170.25
2023-05-11T00:52:29.933Z,101173.75
2023-05-11T00:55:18.532Z,101177.28
2023-05-11T00:58:05.641Z,101176.25
2023-05-11T01:00:51.012Z,101180.72
2023-05-11T01:03:36.718Z,101176.34
2023-05-11T01:06:36.144Z,101168.50
2023-05-11T01:09:35.890Z,101171.94
2023-05-11T01:12:46.090Z,101183.25
2023-05-11T01:15:58.543Z,101175.41
2023-05-11T01:18:58.419Z,101175.13
2023-05-11T01:21:46.213Z,101170.81
2023-05-11T01:25:05.532Z,101180.31
2023-05-11T01:28:15.375Z,101176.75
2023-05-11T01:31:11.694Z,101174.38
2023-05-11T01:34:13.831Z,101175.06
2023-05-11T01:37:10.398Z,101180.66
2023-05-11T01:39:59.005Z,101153.97
2023-05-11T01:42:53.793Z,101182.25
2023-05-11T01:45:43.435Z,101174.53
2023-05-11T01:48:31.930Z,101175.41
2023-05-11T01:51:19.303Z,101169.69
2023-05-11T01:54:09.387Z,101183.44
2023-05-11T01:56:55.470Z,101188.00
2023-05-11T01:59:41.258Z,101189.34
2023-05-11T02:02:27.300Z,101191.84
2023-05-11T02:05:22.564Z,101187.47
2023-05-11T02:08:09.706Z,101183.53
2023-05-11T02:10:56.151Z,101190.28
2023-05-11T02:13:43.518Z,101192.78
2023-05-11T02:16:31.985Z,101187.56
2023-05-11T02:19:17.822Z,101189.88
2023-05-11T02:22:04.972Z,101200.41
2023-05-11T02:24:50.216Z,101199.97
2023-05-11T02:27:38.772Z,101184.69
2023-05-11T02:30:27.068Z,101198.38
2023-05-11T02:33:17.842Z,101196.69
2023-05-11T02:36:05.539Z,101198.19
2023-05-11T02:38:58.265Z,101197.81
2023-05-11T02:41:46.045Z,101198.97
2023-05-11T02:44:36.287Z,101206.19
2023-05-11T02:47:23.173Z,101206.53
2023-05-11T02:50:09.642Z,101201.50
2023-05-11T02:52:57.767Z,101200.00
2023-05-11T02:55:42.937Z,101206.91
2023-05-11T02:58:29.950Z,101210.56
2023-05-11T03:01:15.475Z,101204.75
2023-05-11T03:04:04.296Z,101205.97
2023-05-11T03:06:49.845Z,101202.56
2023-05-11T03:09:35.251Z,101209.53
2023-05-11T03:12:21.330Z,101178.16
2023-05-11T03:15:07.731Z,101195.28
2023-05-11T03:17:53.813Z,101180.97
2023-05-11T03:20:42.084Z,101197.13
2023-05-11T03:23:27.964Z,101174.22
2023-05-11T03:26:13.603Z,101205.56
2023-05-11T03:29:00.212Z,101196.03
2023-05-11T03:31:45.601Z,101199.56
2023-05-11T03:34:30.914Z,101200.41
2023-05-11T03:37:18.033Z,101202.56
2023-05-11T03:40:04.091Z,101197.16
2023-05-11T03:42:52.510Z,101201.38
2023-05-11T03:45:39.221Z,101182.19
2023-05-11T03:48:24.521Z,101198.06
2023-05-11T03:51:11.024Z,101192.34
2023-05-11T03:53:56.410Z,101197.09
2023-05-11T03:56:41.503Z,101192.19
2023-05-11T03:59:26.485Z,101196.13
2023-05-11T04:02:11.574Z,101179.25
2023-05-11T04:04:56.684Z,101178.50
2023-05-11T04:07:41.631Z,101195.28
2023-05-11T04:10:26.641Z,101194.41
2023-05-11T04:13:11.882Z,101197.22
2023-05-11T04:15:56.692Z,101195.72
2023-05-11T04:18:41.697Z,101188.03
2023-05-11T04:21:26.490Z,101181.56
2023-05-11T04:24:11.768Z,101191.75
2023-05-11T04:26:57.532Z,101186.88
2023-05-11T04:29:42.902Z,101190.09
2023-05-11T04:32:29.220Z,101196.81
2023-05-11T04:35:14.444Z,101197.84
2023-05-11T04:37:59.787Z,101198.78
2023-05-11T04:40:44.553Z,101199.44
2023-05-11T04:43:29.592Z,101203.72
2023-05-11T04:46:15.295Z,101194.75
2023-05-11T04:49:00.517Z,101204.91
2023-05-11T04:51:45.840Z,101209.66
2023-05-11T04:54:31.189Z,101201.06
2023-05-11T04:57:16.539Z,101197.34
2023-05-11T05:00:01.828Z,101209.50
2023-05-11T05:02:46.780Z,101201.47
2023-05-11T05:05:31.815Z,101202.22
2023-05-11T05:08:18.663Z,101202.81
2023-05-11T05:11:03.970Z,101202.81
2023-05-11T05:13:48.868Z,101204.31
2023-05-11T05:16:34.124Z,101213.31
2023-05-11T05:19:19.401Z,101219.78
2023-05-11T05:22:05.308Z,101216.66
2023-05-11T05:24:50.640Z,101220.63
2023-05-11T05:27:35.597Z,101222.03
2023-05-11T05:30:20.777Z,101211.75
2023-05-11T05:33:05.942Z,101220.91
2023-05-11T05:35:50.997Z,101230.75
2023-05-11T05:38:36.378Z,101227.22
2023-05-11T05:41:22.293Z,101231.25
2023-05-11T05:44:07.544Z,101221.53
2023-05-11T05:46:52.812Z,101206.91
2023-05-11T05:49:38.184Z,101240.63
2023-05-11T05:52:23.335Z,101236.91
2023-05-11T05:55:08.769Z,101238.31
2023-05-11T05:57:53.949Z,101243.28
2023-05-11T06:00:39.251Z,101227.25
2023-05-11T06:03:25.844Z,101237.84
2023-05-11T06:06:12.961Z,101234.31
2023-05-11T06:08:58.122Z,101231.41
2023-05-11T06:11:43.124Z,101235.59
2023-05-11T06:14:28.186Z,101242.81
2023-05-11T06:17:13.306Z,101243.91
2023-05-11T06:19:58.489Z,101246.97
2023-05-11T06:22:43.614Z,101254.50
2023-05-11T06:25:28.977Z,101250.19
2023-05-11T06:28:14.217Z,101244.00
2023-05-11T06:30:59.537Z,101226.44
2023-05-11T06:33:44.658Z,101248.97
2023-05-11T06:36:29.701Z,101259.63
2023-05-11T06:39:14.769Z,101262.09
2023-05-11T06:42:02.956Z,101266.66
2023-05-11T06:44:50.217Z,101268.16
2023-05-11T06:47:35.745Z,101258.03
2023-05-11T06:50:21.606Z,101276.09
2023-05-11T06:53:08.103Z,101270.59
2023-05-11T06:55:54.723Z,101277.50
2023-05-11T06:58:39.968Z,101282.97
2023-05-11T07:01:25.178Z,101269.84
2023-05-11T07:04:10.508Z,101274.69
2023-05-11T07:06:55.562Z,101275.00
2023-05-11T07:09:42.109Z,101272.91
2023-05-11T07:12:27.228Z,101276.28
2023-05-11T07:15:12.517Z,101279.44
2023-05-11T07:17:57.783Z,101257.44
2023-05-11T07:20:43.055Z,101281.53
2023-05-11T07:23:28.248Z,101279.75
2023-05-11T07:26:13.128Z,101286.88
2023-05-11T07:28:58.347Z,101292.47
2023-05-11T07:31:44.061Z,101285.53
2023-05-11T07:34:29.294Z,101276.66
2023-05-11T07:37:14.304Z,101285.16
2023-05-11T07:39:59.575Z,101293.03
2023-05-11T07:42:44.795Z,101285.81
2023-05-11T07:45:30.081Z,101280.56
2023-05-11T07:48:15.312Z,101292.56
2023-05-11T07:51:01.560Z,101291.78
2023-05-11T07:53:46.724Z,101298.63
2023-05-11T07:56:31.867Z,101291.13
2023-05-11T07:59:16.796Z,101297.53
2023-05-11T08:02:01.946Z,101291.28
2023-05-11T08:04:47.076Z,101288.38
2023-05-11T08:07:32.435Z,101291.28
2023-05-11T08:10:17.351Z,101296.72
2023-05-11T08:13:02.585Z,101301.41
2023-05-11T08:15:48.243Z,101278.63
2023-05-11T08:18:33.176Z,101303.69
2023-05-11T08:21:18.626Z,101299.38
2023-05-11T08:24:03.890Z,101301.84
2023-05-11T08:26:49.707Z,101306.88
2023-05-11T08:29:34.852Z,101299.72
2023-05-11T08:32:20.187Z,101308.91
2023-05-11T08:35:06.076Z,101313.84
2023-05-11T08:37:51.521Z,101301.63
2023-05-11T08:40:37.072Z,101306.78
2023-05-11T08:43:23.231Z,101306.66
2023-05-11T08:46:11.153Z,101309.66
2023-05-11T08:48:58.230Z,101309.66
2023-05-11T08:51:43.492Z,101305.47
2023-05-11T08:54:28.784Z,101309.53
2023-05-11T08:57:14.841Z,101308.34
2023-05-11T09:00:02.149Z,101310.22
2023-05-11T09:02:48.371Z,101303.09
2023-05-11T09:05:36.259Z,101307.38
2023-05-11T09:08:22.705Z,101304.88
2023-05-11T09:11:08.271Z,101304.19
2023-05-11T09:13:53.754Z,101307.19
2023-05-11T09:16:38.747Z,101308.78
2023-05-11T09:19:24.124Z,101312.03
2023-05-11T09:22:09.293Z,101312.13
2023-05-11T09:24:54.567Z,101305.19
2023-05-11T09:27:47.204Z,101308.38
2023-05-11T09:30:34.023Z,101299.69
2023-05-11T09:33:24.479Z,101301.06
2023-05-11T09:36:23.382Z,101294.94
2023-05-11T09:39:15.397Z,101303.97
2023-05-11T09:42:21.532Z,101291.91
2023-05-11T09:45:08.651Z,101300.00
2023-05-11T09:47:53.943Z,101297.69
2023-05-11T09:50:38.943Z,101305.63
2023-05-11T09:53:42.662Z,101303.63
2023-05-11T09:56:48.096Z,101310.09
2023-05-11T09:59:38.177Z,101307.09
2023-05-11T10:02:28.007Z,101302.34
2023-05-11T10:05:13.562Z,101301.56
2023-05-11T10:08:00.797Z,101295.25
2023-05-11T10:10:46.030Z,101286.16
2023-05-11T10:13:32.658Z,101283.38
2023-05-11T10:16:19.375Z,101286.03
2023-05-11T10:19:04.726Z,101289.94
2023-05-11T10:21:52.379Z,101285.75
2023-05-11T10:24:38.830Z,101286.34
2023-05-11T10:27:24.505Z,101259.84
2023-05-11T10:30:10.937Z,101265.03
2023-05-11T10:32:57.472Z,101278.34
2023-05-11T10:35:45.110Z,101278.16
2023-05-11T10:38:30.183Z,101286.78
2023-05-11T10:41:55.676Z,101283.66
2023-05-11T10:45:02.267Z,101272.94
2023-05-11T10:48:12.161Z,101281.41
2023-05-11T10:51:16.093Z,101276.66
2023-05-11T10:54:16.611Z,101271.47
2023-05-11T10:57:30.992Z,101283.09
2023-05-11T11:01:13.383Z,101275.75
2023-05-11T11:04:05.685Z,101284.19
2023-05-11T11:07:07.024Z,101281.06
2023-05-11T11:09:57.111Z,101282.69
2023-05-11T11:13:01.873Z,101288.50
2023-05-11T11:15:53.487Z,101277.94
2023-05-11T11:18:38.691Z,101270.97
2023-05-11T11:21:41.532Z,101271.81
2023-05-11T11:24:39.049Z,101276.41
2023-05-11T11:27:43.659Z,101278.09
2023-05-11T11:30:30.580Z,101274.75
2023-05-11T11:33:16.194Z,101267.91
2023-05-11T11:36:01.622Z,101272.09
2023-05-11T11:39:00.254Z,101268.91
2023-05-11T11:41:46.370Z,101274.31
2023-05-11T11:44:33.479Z,101276.25
2023-05-11T11:47:20.470Z,101269.13
2023-05-11T11:50:13.156Z,101267.28
2023-05-11T11:52:58.338Z,101271.59
2023-05-11T11:55:48.710Z,101274.34
2023-05-11T11:58:46.227Z,101275.31
2023-05-11T12:01:37.481Z,101273.25
2023-05-11T12:04:45.034Z,101264.44
2023-05-11T12:07:34.303Z,101262.50
2023-05-11T12:10:21.932Z,101266.25
2023-05-11T12:13:09.592Z,101266.09
2023-05-11T12:16:12.382Z,101274.72
2023-05-11T12:19:01.733Z,101268.91
2023-05-11T12:21:47.114Z,101268.78
2023-05-11T12:24:32.158Z,101260.06
2023-05-11T12:27:19.019Z,101265.81
2023-05-11T12:30:04.661Z,101264.72
2023-05-11T12:32:56.528Z,101253.81
2023-05-11T12:35:45.536Z,101256.16
2023-05-11T12:38:30.472Z,101263.81
2023-05-11T12:41:22.799Z,101255.25
2023-05-11T12:44:07.987Z,101256.97
2023-05-11T12:46:53.672Z,101245.16
2023-05-11T12:49:41.588Z,101238.03
2023-05-11T12:52:26.647Z,101240.41
2023-05-11T12:55:11.894Z,101237.38
2023-05-11T12:58:16.096Z,101242.09
2023-05-11T13:01:01.630Z,101235.41
2023-05-11T13:03:47.858Z,101230.91
2023-05-11T13:06:33.450Z,101245.88
2023-05-11T13:09:24.096Z,101244.63
2023-05-11T13:12:20.766Z,101231.94
2023-05-11T13:15:13.820Z,101227.31
2023-05-11T13:18:00.772Z,101228.13
2023-05-11T13:20:46.496Z,101230.63
2023-05-11T13:23:31.766Z,101225.88
2023-05-11T13:26:29.138Z,101227.75
2023-05-11T13:29:14.344Z,101224.19
2023-05-11T13:31:59.700Z,101215.91
2023-05-11T13:34:44.928Z,101219.75
2023-05-11T13:37:30.327Z,101211.63
2023-05-11T13:40:15.353Z,101208.97
2023-05-11T13:43:00.817Z,101214.56
2023-05-11T13:45:46.215Z,101209.16
2023-05-11T13:48:32.292Z,101210.22
2023-05-11T13:51:17.482Z,101206.00
2023-05-11T13:54:02.599Z,101216.63
2023-05-11T13:56:48.243Z,101206.19
2023-05-11T13:59:33.124Z,101213.41
2023-05-11T14:02:18.024Z,101212.03
2023-05-11T14:05:03.018Z,101208.50
2023-05-11T14:07:49.145Z,101211.13
2023-05-11T14:10:34.682Z,101200.59
2023-05-11T14:13:19.601Z,101217.78
2023-05-11T14:16:05.339Z,101214.44
2023-05-11T14:18:50.757Z,101234.63
2023-05-11T14:21:36.632Z,101266.28
2023-05-11T14:24:22.586Z,101263.06
2023-05-11T14:27:07.626Z,101272.69
2023-05-11T14:29:52.706Z,101269.00
2023-05-11T14:32:37.831Z,101272.91
2023-05-11T14:35:22.884Z,101299.56
2023-05-11T14:38:07.841Z,101300.78
2023-05-11T14:40:52.763Z,101296.94
2023-05-11T14:43:39.936Z,101305.84
2023-05-11T14:46:26.710Z,101303.81
2023-05-11T14:49:12.435Z,101299.97
2023-05-11T14:51:58.044Z,101316.88
2023-05-11T14:54:43.199Z,101314.31
2023-05-11T14:57:28.357Z,101315.16
2023-05-11T15:00:14.001Z,101318.59
2023-05-11T15:02:59.213Z,101329.00
2023-05-11T15:05:46.591Z,101318.94
2023-05-11T15:08:32.555Z,101321.44
2023-05-11T15:11:18.509Z,101329.53
2023-05-11T15:14:11.806Z,101329.09
2023-05-11T15:16:59.530Z,101325.84
2023-05-11T15:19:44.655Z,101336.09
2023-05-11T15:22:29.996Z,101317.25
2023-05-11T15:25:15.091Z,101323.72
2023-05-11T15:28:00.606Z,101337.44
2023-05-11T15:30:47.016Z,101328.38
2023-05-11T15:33:33.299Z,101343.91
2023-05-11T15:36:18.562Z,101338.91
2023-05-11T15:39:03.980Z,101320.56
2023-05-11T15:41:49.059Z,101345.63
2023-05-11T15:44:35.190Z,101344.53
2023-05-11T15:47:20.501Z,101332.41
2023-05-11T15:50:06.468Z,101332.59
2023-05-11T15:52:51.530Z,101323.81
2023-05-11T15:55:37.192Z,101324.28
2023-05-11T15:58:22.791Z,101321.63
2023-05-11T16:01:08.147Z,101323.59
2023-05-11T16:03:53.205Z,101312.13
2023-05-11T16:06:38.281Z,101303.53
2023-05-11T16:09:23.473Z,101289.00
2023-05-11T16:12:08.973Z,101282.44
2023-05-11T16:14:53.786Z,101300.31
2023-05-11T16:17:38.962Z,101298.31
2023-05-11T16:20:24.299Z,101302.31
2023-05-11T16:23:09.425Z,101308.56
2023-05-11T16:25:56.332Z,101313.38
2023-05-11T16:28:42.636Z,101312.41
2023-05-11T16:31:27.711Z,101302.63
2023-05-11T16:34:12.515Z,101313.19
2023-05-11T16:36:59.201Z,101305.88
2023-05-11T16:39:44.814Z,101299.03
2023-05-11T16:42:30.209Z,101307.78
2023-05-11T16:45:16.505Z,101295.69
2023-05-11T16:48:02.033Z,101303.88
2023-05-11T16:50:47.532Z,101321.63
2023-05-11T16:53:32.493Z,101309.63
2023-05-11T16:56:18.085Z,101311.69
2023-05-11T16:59:03.660Z,101319.22
2023-05-11T17:01:49.390Z,101310.75
2023-05-11T17:04:34.917Z,101328.25
2023-05-11T17:07:19.941Z,101326.47
2023-05-11T17:10:05.713Z,101325.25
2023-05-11T17:12:51.265Z,101337.25
2023-05-11T17:15:36.511Z,101328.16
2023-05-11T17:18:22.053Z,101334.59
2023-05-11T17:21:07.145Z,101334.50
2023-05-11T17:23:53.088Z,101337.47
2023-05-11T17:26:47.061Z,101335.28
2023-05-11T17:29:33.453Z,101326.44
2023-05-11T17:32:18.903Z,101340.72
2023-05-11T17:35:04.661Z,101325.19
2023-05-11T17:37:49.793Z,101336.47
2023-05-11T17:40:35.061Z,101338.09
2023-05-11T17:43:20.350Z,101328.72
2023-05-11T17:46:05.521Z,101331.38
2023-05-11T17:48:52.530Z,101342.41
2023-05-11T17:51:37.865Z,101338.22
2023-05-11T17:54:22.991Z,101342.88
2023-05-11T17:57:08.189Z,101346.50
2023-05-11T17:59:53.514Z,101335.84
2023-05-11T18:02:38.775Z,101354.56
2023-05-11T18:05:33.427Z,101351.22
2023-05-11T18:08:26.067Z,101355.13
2023-05-11T18:11:12.645Z,101356.22
2023-05-11T18:13:57.615Z,101338.19
2023-05-11T18:16:43.468Z,101364.81
2023-05-11T18:19:28.886Z,101366.44
2023-05-11T18:22:14.138Z,101371.94
2023-05-11T18:24:59.518Z,101380.06
2023-05-11T18:27:44.712Z,101372.75
2023-05-11T18:30:30.574Z,101368.97
2023-05-11T18:33:15.644Z,101371.38
2023-05-11T18:36:02.025Z,101370.88
2023-05-11T18:38:48.862Z,101374.34
2023-05-11T18:41:34.600Z,101368.31
2023-05-11T18:44:19.752Z,101374.56
2023-05-11T18:47:05.458Z,101381.63
2023-05-11T18:49:51.100Z,101379.09
2023-05-11T18:52:36.211Z,101390.38
2023-05-11T18:55:21.240Z,101386.38
2023-05-11T18:58:06.640Z,101388.50
2023-05-11T19:00:52.178Z,101376.44
2023-05-11T19:03:38.480Z,101390.34
2023-05-11T19:06:23.890Z,101395.00
2023-05-11T19:09:08.959Z,101393.53
2023-05-11T19:11:54.295Z,101398.06
2023-05-11T19:14:39.772Z,101405.44
2023-05-11T19:17:25.055Z,101408.81
2023-05-11T19:20:11.782Z,101408.41
2023-05-11T19:22:57.609Z,101399.00
2023-05-11T19:25:42.867Z,101404.41
2023-05-11T19:28:27.958Z,101398.72
2023-05-11T19:31:13.404Z,101408.72
2023-05-11T19:33:59.056Z,101421.88
2023-05-11T19:36:43.963Z,101432.22
2023-05-11T19:39:28.919Z,101433.78
2023-05-11T19:42:14.049Z,101444.84
2023-05-11T19:44:59.142Z,101441.25
2023-05-11T19:47:44.671Z,101432.94
2023-05-11T19:50:29.896Z,101446.50
2023-05-11T19:53:15.301Z,101459.31
2023-05-11T19:56:00.575Z,101469.13
2023-05-11T19:58:45.713Z,101467.75
2023-05-11T20:01:30.696Z,101449.00
2023-05-11T20:04:15.625Z,101466.53
2023-05-11T20:07:00.882Z,101465.97
2023-05-11T20:09:45.982Z,101469.84
2023-05-11T20:12:31.435Z,101471.53
2023-05-11T20:15:17.070Z,101482.81
2023-05-11T20:18:04.920Z,101453.00
2023-05-11T20:20:49.909Z,101484.00
2023-05-11T20:23:36.605Z,101487.03
2023-05-11T20:26:22.793Z,101489.56
2023-05-11T20:29:09.262Z,101487.13
2023-05-11T20:31:54.418Z,101483.66
2023-05-11T20:34:39.854Z,101484.97
2023-05-11T20:37:24.821Z,101505.06
2023-05-11T20:40:10.316Z,101492.13
2023-05-11T20:42:55.210Z,101495.69
2023-05-11T20:45:40.388Z,101495.03
2023-05-11T20:48:36.187Z,101499.41
2023-05-11T20:51:25.115Z,101515.91
2023-05-11T20:54:11.555Z,101514.88
2023-05-11T20:56:56.463Z,101512.72
2023-05-11T21:02:29.974Z,101516.13
2023-05-11T21:05:15.295Z,101504.28
2023-05-11T21:08:00.670Z,101493.41
2023-05-11T21:10:45.449Z,101515.44
2023-05-11T21:13:30.705Z,101503.97
2023-05-11T21:16:16.005Z,101516.66
2023-05-11T21:19:01.297Z,101513.47
2023-05-11T21:21:49.425Z,101504.81
2023-05-11T21:24:37.536Z,101520.16
2023-05-11T21:27:22.617Z,101525.78
2023-05-11T21:30:09.212Z,101507.94
2023-05-11T21:32:54.210Z,101536.53
2023-05-11T21:35:39.173Z,101530.44
2023-05-11T21:38:24.293Z,101525.69
2023-05-11T21:41:09.558Z,101541.94
2023-05-11T21:43:54.415Z,101544.66
2023-05-11T21:46:39.331Z,101544.25
2023-05-11T21:49:24.262Z,101544.09
2023-05-11T21:52:09.758Z,101533.00
2023-05-11T21:54:54.729Z,101557.13
2023-05-11T21:57:39.771Z,101558.06
2023-05-11T22:00:25.159Z,101549.78
2023-05-11T22:03:10.412Z,101551.06
2023-05-11T22:05:55.816Z,101548.25
2023-05-11T22:08:40.894Z,101552.56
2023-05-11T22:11:26.734Z,101557.22
2023-05-11T22:14:11.957Z,101557.56
2023-05-11T22:16:57.323Z,101557.72
2023-05-11T22:19:42.502Z,101555.88
2023-05-11T22:22:27.564Z,101567.03
2023-05-11T22:25:12.850Z,101573.97
2023-05-11T22:27:58.287Z,101559.53
2023-05-11T22:30:43.176Z,101563.03
2023-05-11T22:33:28.095Z,101583.06
2023-05-11T22:36:13.047Z,101572.81
2023-05-11T22:38:58.247Z,101573.56
2023-05-11T22:41:43.219Z,101584.38
2023-05-11T22:44:28.352Z,101574.47
2023-05-11T22:47:13.745Z,101568.78
2023-05-11T22:49:58.844Z,101582.72
2023-05-11T22:52:43.794Z,101587.72
2023-05-11T22:55:28.851Z,101588.44
2023-05-11T22:58:14.501Z,101590.59
2023-05-11T23:01:00.602Z,101584.75
2023-05-11T23:03:46.544Z,101592.59
2023-05-11T23:06:46.646Z,101583.78
2023-05-11T23:09:31.984Z,101573.66
2023-05-11T23:12:17.515Z,101580.16
2023-05-11T23:15:02.645Z,101595.53
2023-05-11T23:17:47.991Z,101604.22
2023-05-11T23:20:33.281Z,101600.94
2023-05-11T23:23:18.381Z,101603.88
2023-05-11T23:26:03.388Z,101599.25
2023-05-11T23:28:48.557Z,101595.09
2023-05-11T23:31:34.245Z,101598.09
2023-05-11T23:34:19.564Z,101578.16
2023-05-11T23:37:04.740Z,101577.94
2023-05-11T23:39:49.759Z,101600.09
2023-05-11T23:42:35.061Z,101597.38
2023-05-11T23:45:20.174Z,101592.53
2023-05-11T23:48:06.066Z,101606.75
2023-05-11T23:50:51.371Z,101598.44
2023-05-11T23:53:36.663Z,101609.19
2023-05-11T23:56:21.631Z,101607.06
2023-05-11T23:59:06.689Z,101607.75
